createdAt,value
2023-01-05T00:02:00.205Z,78.30
2023-01-05T00:04:27.026Z,78.30
2023-01-05T00:06:53.637Z,78.30
2023-01-05T00:09:21.331Z,78.30
2023-01-05T00:12:06.328Z,80.80
2023-01-05T00:14:52.310Z,82.90
2023-01-05T00:17:41.587Z,86.50
2023-01-05T00:20:32.185Z,86.40
2023-01-05T00:22:58.737Z,87.30
2023-01-05T00:25:26.614Z,88.70
2023-01-05T00:27:54.050Z,90.10
2023-01-05T00:30:22.188Z,90.30
2023-01-05T00:32:49.093Z,90.80
2023-01-05T00:35:16.614Z,91.50
2023-01-05T00:37:43.607Z,91.90
2023-01-05T00:40:11.785Z,91.90
2023-01-05T00:42:38.647Z,91.90
2023-01-05T00:45:06.640Z,91.80
2023-01-05T00:47:33.223Z,91.90
2023-01-05T00:49:59.807Z,92.40
2023-01-05T00:52:26.446Z,92.70
2023-01-05T00:54:53.068Z,92.60
2023-01-05T00:57:19.585Z,92.30
2023-01-05T00:59:46.296Z,92.30
2023-01-05T01:02:13.734Z,91.80
2023-01-05T01:04:40.342Z,91.80
2023-01-05T01:07:06.994Z,91.90
2023-01-05T01:09:34.236Z,91.90
2023-01-05T01:12:01.194Z,91.80
2023-01-05T01:14:27.764Z,92.40
2023-01-05T01:16:54.340Z,92.50
2023-01-05T01:19:22.149Z,92.80
2023-01-05T01:21:48.786Z,92.80
2023-01-05T01:24:17.450Z,93.00
2023-01-05T01:26:44.270Z,92.70
2023-01-05T01:29:10.812Z,92.80
2023-01-05T01:31:37.410Z,93.00
2023-01-05T01:34:04.348Z,92.80
2023-01-05T01:36:31.096Z,92.80
2023-01-05T01:38:57.706Z,92.90
2023-01-05T01:41:24.231Z,93.20
2023-01-05T01:43:53.848Z,93.80
2023-01-05T01:46:21.246Z,93.50
2023-01-05T01:48:58.886Z,94.30
2023-01-05T01:51:30.390Z,94.60
2023-01-05T01:53:59.092Z,94.90
2023-01-05T01:56:27.181Z,94.70
2023-01-05T01:58:53.958Z,94.70
2023-01-05T02:01:20.638Z,95.10
2023-01-05T02:03:47.458Z,94.50
2023-01-05T02:06:14.203Z,94.50
2023-01-05T02:08:40.763Z,94.70
2023-01-05T02:11:07.335Z,95.30
2023-01-05T02:13:33.976Z,95.30
2023-01-05T02:16:19.284Z,95.50
2023-01-05T02:18:45.817Z,95.90
2023-01-05T02:21:18.706Z,95.90
2023-01-05T02:24:03.857Z,95.90
2023-01-05T02:26:47.721Z,96.10
2023-01-05T02:29:28.783Z,96.40
2023-01-05T02:31:55.319Z,96.30
2023-01-05T02:35:00.535Z,96.80
2023-01-05T02:37:36.166Z,96.80
2023-01-05T02:40:05.480Z,96.90
2023-01-05T02:42:32.928Z,97.00
2023-01-05T02:45:04.775Z,97.00
2023-01-05T02:47:57.729Z,97.00
2023-01-05T02:50:26.768Z,97.00
2023-01-05T02:53:13.082Z,97.00
2023-01-05T02:55:57.297Z,96.70
2023-01-05T02:58:26.864Z,96.70
2023-01-05T03:01:26.224Z,96.60
2023-01-05T03:03:56.468Z,96.70
2023-01-05T03:06:22.942Z,96.20
2023-01-05T03:08:51.828Z,95.80
2023-01-05T03:11:37.203Z,95.80
2023-01-05T03:14:07.978Z,95.60
2023-01-05T03:16:35.483Z,95.90
2023-01-05T03:19:22.461Z,95.60
2023-01-05T03:22:08.678Z,95.40
2023-01-05T03:24:55.450Z,95.40
2023-01-05T03:27:41.528Z,95.40
2023-01-05T03:30:27.334Z,95.20
2023-01-05T03:33:15.893Z,94.80
2023-01-05T03:35:43.847Z,94.10
2023-01-05T03:38:18.487Z,93.70
2023-01-05T03:40:45.783Z,93.70
2023-01-05T03:43:12.718Z,93.20
2023-01-05T03:45:41.900Z,92.80
2023-01-05T03:48:08.528Z,92.00
2023-01-05T03:50:35.727Z,92.30
2023-01-05T03:53:02.713Z,91.70
2023-01-05T03:55:29.256Z,91.00
2023-01-05T03:57:55.805Z,90.90
2023-01-05T04:00:22.356Z,90.70
2023-01-05T04:02:49.018Z,90.40
2023-01-05T04:05:15.701Z,89.90
2023-01-05T04:07:42.362Z,89.50
2023-01-05T04:10:09.155Z,88.60
2023-01-05T04:12:36.591Z,89.00
2023-01-05T04:15:03.855Z,90.30
2023-01-05T04:17:30.433Z,92.10
2023-01-05T04:19:57.075Z,92.10
2023-01-05T04:22:27.249Z,92.10
2023-01-05T04:24:54.376Z,91.30
2023-01-05T04:27:20.938Z,91.40
2023-01-05T04:29:47.540Z,91.20
2023-01-05T04:32:14.041Z,91.20
2023-01-05T04:34:40.686Z,90.70
2023-01-05T04:37:07.211Z,90.30
2023-01-05T04:39:33.783Z,90.10
2023-01-05T04:42:00.326Z,89.50
2023-01-05T04:44:26.913Z,89.30
2023-01-05T04:46:53.599Z,89.30
2023-01-05T04:49:20.203Z,88.40
2023-01-05T04:51:46.710Z,87.70
2023-01-05T04:54:13.194Z,87.20
2023-01-05T04:56:39.734Z,86.90
2023-01-05T04:59:06.337Z,86.90
2023-01-05T05:01:32.963Z,86.30
2023-01-05T05:03:59.644Z,85.50
2023-01-05T05:06:26.432Z,87.10
2023-01-05T05:08:52.968Z,85.80
2023-01-05T05:11:19.557Z,86.40
2023-01-05T05:13:46.077Z,86.60
2023-01-05T05:16:12.650Z,86.90
2023-01-05T05:18:39.190Z,86.90
2023-01-05T05:21:05.935Z,88.70
2023-01-05T05:23:32.506Z,90.30
2023-01-05T05:25:59.079Z,90.90
2023-01-05T05:28:28.125Z,92.10
2023-01-05T05:30:56.170Z,93.40
2023-01-05T05:33:23.361Z,94.90
2023-01-05T05:35:49.882Z,96.00
2023-01-05T05:38:16.360Z,97.20
2023-01-05T05:40:42.894Z,98.00
2023-01-05T05:43:09.399Z,98.80
2023-01-05T05:45:35.936Z,98.80
2023-01-05T05:48:02.523Z,98.80
2023-01-05T05:50:29.078Z,98.80
2023-01-05T05:52:55.589Z,99.10
2023-01-05T05:55:22.127Z,98.80
2023-01-05T05:57:48.679Z,98.70
2023-01-05T06:00:15.549Z,98.70
2023-01-05T06:02:42.267Z,97.30
2023-01-05T06:05:09.018Z,97.00
2023-01-05T06:07:35.591Z,96.70
2023-01-05T06:10:02.254Z,96.20
2023-01-05T06:12:29.089Z,96.60
2023-01-05T06:14:55.725Z,96.60
2023-01-05T06:17:22.245Z,96.30
2023-01-05T06:19:48.780Z,96.60
2023-01-05T06:22:15.324Z,95.90
2023-01-05T06:24:41.865Z,95.20
2023-01-05T06:27:08.476Z,95.30
2023-01-05T06:29:35.006Z,94.40
2023-01-05T06:32:01.768Z,92.70
2023-01-05T06:34:28.275Z,91.70
2023-01-05T06:37:00.634Z,90.90
2023-01-05T06:39:28.846Z,90.50
2023-01-05T06:41:55.392Z,89.80
2023-01-05T06:44:21.910Z,89.90
2023-01-05T06:46:48.436Z,87.40
2023-01-05T06:49:15.043Z,86.40
2023-01-05T06:51:41.633Z,85.60
2023-01-05T06:54:08.186Z,81.60
2023-01-05T06:56:34.688Z,80.80
2023-01-05T06:59:01.176Z,80.50
2023-01-05T07:01:27.841Z,80.10
2023-01-05T07:03:54.638Z,80.50
2023-01-05T07:06:21.242Z,74.00
2023-01-05T07:08:47.864Z,71.60
2023-01-05T07:11:16.159Z,72.00
2023-01-05T07:13:43.548Z,70.40
2023-01-05T07:16:10.194Z,71.70
2023-01-05T07:18:36.904Z,68.90
2023-01-05T07:21:03.453Z,68.90
2023-01-05T07:23:30.114Z,69.70
2023-01-05T07:26:00.144Z,69.30
2023-01-05T07:28:26.780Z,69.70
2023-01-05T07:30:53.392Z,68.70
2023-01-05T07:33:19.961Z,67.90
2023-01-05T07:35:46.499Z,67.40
2023-01-05T07:38:13.157Z,60.10
2023-01-05T07:40:39.655Z,60.10
2023-01-05T07:43:06.198Z,58.10
2023-01-05T07:45:32.760Z,55.40
2023-01-05T07:48:00.200Z,53.70
2023-01-05T07:50:26.940Z,54.90
2023-01-05T07:52:53.591Z,55.60
2023-01-05T07:55:20.293Z,53.40
2023-01-05T07:57:47.435Z,54.00
2023-01-05T08:00:15.003Z,54.30
2023-01-05T08:02:42.231Z,52.50
2023-01-05T08:05:09.058Z,50.00
2023-01-05T08:07:35.915Z,52.10
2023-01-05T08:10:20.991Z,52.60
2023-01-05T08:13:06.061Z,50.00
2023-01-05T08:15:32.586Z,50.00
2023-01-05T08:17:59.101Z,50.10
2023-01-05T08:20:25.746Z,49.30
2023-01-05T08:22:52.890Z,47.50
2023-01-05T08:25:19.806Z,47.10
2023-01-05T08:27:46.871Z,47.60
2023-01-05T08:30:14.096Z,46.90
2023-01-05T08:32:41.131Z,44.80
2023-01-05T08:35:07.828Z,46.70
2023-01-05T08:37:34.320Z,48.70
2023-01-05T08:40:00.898Z,45.30
2023-01-05T08:42:27.389Z,43.90
2023-01-05T08:44:53.906Z,44.60
2023-01-05T08:47:23.780Z,42.20
2023-01-05T08:49:54.422Z,39.60
2023-01-05T08:52:23.029Z,37.60
2023-01-05T08:54:49.794Z,36.90
2023-01-05T08:57:16.285Z,35.60
2023-01-05T08:59:42.820Z,35.10
2023-01-05T09:02:11.434Z,32.80
2023-01-05T09:04:38.099Z,33.30
2023-01-05T09:07:04.641Z,32.60
2023-01-05T09:09:31.219Z,32.10
2023-01-05T09:11:57.746Z,32.70
2023-01-05T09:14:24.325Z,33.20
2023-01-05T09:17:07.018Z,32.40
2023-01-05T09:19:34.144Z,34.70
2023-01-05T09:22:00.698Z,33.00
2023-01-05T09:24:27.376Z,30.60
2023-01-05T09:26:54.375Z,30.90
2023-01-05T09:29:20.990Z,30.30
2023-01-05T09:31:47.720Z,29.90
2023-01-05T09:34:14.354Z,29.40
2023-01-05T09:36:40.848Z,29.40
2023-01-05T09:39:07.487Z,29.50
2023-01-05T09:41:36.617Z,29.60
2023-01-05T09:44:11.715Z,27.80
2023-01-05T09:46:41.309Z,27.10
2023-01-05T09:49:12.579Z,23.90
2023-01-05T09:51:39.261Z,21.40
2023-01-05T09:54:05.906Z,19.40
2023-01-05T09:57:07.929Z,16.80
2023-01-05T09:59:48.232Z,19.20
2023-01-05T10:02:31.532Z,19.90
2023-01-05T10:04:59.594Z,19.80
2023-01-05T10:07:30.976Z,17.40
2023-01-05T10:09:59.707Z,16.90
2023-01-05T10:12:50.330Z,15.70
2023-01-05T10:15:18.312Z,16.80
2023-01-05T10:17:45.028Z,16.80
2023-01-05T10:20:20.654Z,16.80
2023-01-05T10:23:00.627Z,16.80
2023-01-05T10:25:44.297Z,16.10
2023-01-05T10:28:20.550Z,16.30
2023-01-05T10:30:58.473Z,15.80
2023-01-05T10:33:41.485Z,14.50
2023-01-05T10:36:41.303Z,15.50
2023-01-05T10:39:39.754Z,16.50
2023-01-05T10:42:10.044Z,14.80
2023-01-05T10:44:48.488Z,15.20
2023-01-05T10:47:15.211Z,15.50
2023-01-05T10:49:43.692Z,16.80
2023-01-05T10:52:13.209Z,17.00
2023-01-05T10:54:40.880Z,17.20
2023-01-05T10:57:35.169Z,17.20
2023-01-05T11:00:06.480Z,16.20
2023-01-05T11:02:37.456Z,15.10
2023-01-05T11:05:07.600Z,15.10
2023-01-05T11:07:46.077Z,14.80
2023-01-05T11:10:28.892Z,15.50
2023-01-05T11:13:18.672Z,14.90
2023-01-05T11:15:50.696Z,14.30
2023-01-05T11:18:22.890Z,12.80
2023-01-05T11:21:06.104Z,11.10
2023-01-05T11:23:37.405Z,12.00
2023-01-05T11:26:16.232Z,12.70
2023-01-05T11:29:01.457Z,12.80
2023-01-05T11:31:32.060Z,12.70
2023-01-05T11:33:59.309Z,12.70
2023-01-05T11:36:26.257Z,12.70
2023-01-05T11:38:54.634Z,12.70
2023-01-05T11:41:22.012Z,12.60
2023-01-05T11:43:49.376Z,12.60
2023-01-05T11:46:17.278Z,13.50
2023-01-05T11:48:50.890Z,13.70
2023-01-05T11:51:32.559Z,12.40
2023-01-05T11:53:59.120Z,12.40
2023-01-05T11:56:27.006Z,12.40
2023-01-05T11:58:55.091Z,13.40
2023-01-05T12:01:27.969Z,13.60
2023-01-05T12:04:01.364Z,11.50
2023-01-05T12:06:50.490Z,10.00
2023-01-05T12:09:29.783Z,8.70
2023-01-05T12:12:05.424Z,9.50
2023-01-05T12:14:47.158Z,9.90
2023-01-05T12:17:14.717Z,8.60
2023-01-05T12:19:50.498Z,8.90
2023-01-05T12:22:43.139Z,9.40
2023-01-05T12:25:23.823Z,10.10
2023-01-05T12:28:08.932Z,9.80
2023-01-05T12:36:32.457Z,1.00
2023-01-05T12:39:05.418Z,1.00
2023-01-05T12:41:37.618Z,1.00
2023-01-05T12:44:16.382Z,1.00
2023-01-05T12:47:01.885Z,1.00
2023-01-05T12:49:32.660Z,3.50
2023-01-05T12:52:08.223Z,3.40
2023-01-05T12:54:46.731Z,5.60
2023-01-05T12:57:39.794Z,8.20
2023-01-05T13:00:11.918Z,12.80
2023-01-05T13:02:44.357Z,12.00
2023-01-05T13:05:22.605Z,9.40
2023-01-05T13:08:15.977Z,5.50
2023-01-05T13:10:49.561Z,4.00
2023-01-05T13:13:18.129Z,3.70
2023-01-05T13:15:53.970Z,3.70
2023-01-05T13:18:20.938Z,3.80
2023-01-05T13:21:01.526Z,3.60
2023-01-05T13:23:30.346Z,3.50
2023-01-05T13:25:59.395Z,4.40
2023-01-05T13:28:28.836Z,4.10
2023-01-05T13:31:07.347Z,5.80
2023-01-05T13:33:42.982Z,8.10
2023-01-05T13:36:16.214Z,7.90
2023-01-05T13:39:05.873Z,8.60
2023-01-05T13:41:32.381Z,8.40
2023-01-05T13:44:09.760Z,9.30
2023-01-05T13:46:43.130Z,10.00
2023-01-05T13:49:22.093Z,9.80
2023-01-05T13:51:54.637Z,9.10
2023-01-05T13:54:43.680Z,9.60
2023-01-05T13:57:15.750Z,10.00
2023-01-05T13:59:55.035Z,10.00
2023-01-05T14:02:28.901Z,66.50
2023-01-05T14:04:55.620Z,27.70
2023-01-05T14:07:22.568Z,15.20
2023-01-05T14:09:51.035Z,10.60
2023-01-05T14:12:17.857Z,9.60
2023-01-05T14:15:03.438Z,2.60
2023-01-05T14:17:48.950Z,1.00
2023-01-05T14:20:34.374Z,1.00
2023-01-05T14:23:01.863Z,17.80
2023-01-05T14:25:37.644Z,13.00
2023-01-05T14:28:19.521Z,12.90
2023-01-05T14:30:46.882Z,7.40
2023-01-05T14:33:13.442Z,2.60
2023-01-05T14:35:40.061Z,4.40
2023-01-05T14:38:14.165Z,1.00
2023-01-05T14:40:45.142Z,1.00
2023-01-05T14:43:29.090Z,5.20
2023-01-05T14:46:01.550Z,8.00
2023-01-05T14:48:39.618Z,11.50
2023-01-05T14:51:08.002Z,13.40
2023-01-05T14:53:45.642Z,15.50
2023-01-05T14:56:16.755Z,17.40
2023-01-05T14:58:43.294Z,19.40
2023-01-05T15:01:15.668Z,21.00
2023-01-05T15:03:48.529Z,21.70
2023-01-05T15:06:27.900Z,21.90
2023-01-05T15:09:00.455Z,23.00
2023-01-05T15:11:45.962Z,23.40
2023-01-05T15:14:37.242Z,24.20
2023-01-05T15:17:16.186Z,24.60
2023-01-05T15:19:57.806Z,25.90
2023-01-05T15:22:37.711Z,27.30
2023-01-05T15:25:23.449Z,29.50
2023-01-05T15:28:08.485Z,29.90
2023-01-05T15:30:42.088Z,31.60
2023-01-05T15:33:24.645Z,32.90
2023-01-05T15:35:53.928Z,33.30
2023-01-05T15:38:25.499Z,34.80
2023-01-05T15:40:58.297Z,36.50
2023-01-05T15:43:25.533Z,36.20
2023-01-05T15:45:53.497Z,36.40
2023-01-05T15:48:28.763Z,37.20
2023-01-05T15:50:57.037Z,37.50
2023-01-05T15:53:26.623Z,39.00
2023-01-05T15:55:53.482Z,39.50
2023-01-05T15:58:21.083Z,39.80
2023-01-05T16:01:07.962Z,40.20
2023-01-05T16:03:36.201Z,39.70
2023-01-05T16:06:05.303Z,39.80
2023-01-05T16:08:33.491Z,40.50
2023-01-05T16:11:01.309Z,41.40
2023-01-05T16:13:53.954Z,42.20
2023-01-05T16:16:50.530Z,42.80
2023-01-05T16:19:25.205Z,43.30
2023-01-05T16:21:58.064Z,43.30
2023-01-05T16:24:33.736Z,43.20
2023-01-05T16:27:02.175Z,43.40
2023-01-05T16:29:32.548Z,43.60
2023-01-05T16:31:59.398Z,43.30
2023-01-05T16:34:29.521Z,43.30
2023-01-05T16:37:08.453Z,44.00
2023-01-05T16:39:36.205Z,44.80
2023-01-05T16:42:29.571Z,46.60
2023-01-05T16:44:56.520Z,46.60
2023-01-05T16:47:34.312Z,47.10
2023-01-05T16:50:00.870Z,47.10
2023-01-05T16:52:33.251Z,47.00
2023-01-05T16:55:23.686Z,45.90
2023-01-05T16:57:53.916Z,47.00
2023-01-05T17:00:26.710Z,47.10
2023-01-05T17:02:54.185Z,47.20
2023-01-05T17:05:22.171Z,48.90
2023-01-05T17:07:51.591Z,48.80
2023-01-05T17:10:23.136Z,50.10
2023-01-05T17:12:54.896Z,50.10
2023-01-05T17:15:23.873Z,50.00
2023-01-05T17:17:50.862Z,51.80
2023-01-05T17:20:17.401Z,52.20
2023-01-05T17:22:43.989Z,52.30
2023-01-05T17:25:14.062Z,52.90
2023-01-05T17:27:41.910Z,53.80
2023-01-05T17:30:26.548Z,54.40
2023-01-05T17:32:53.107Z,54.80
2023-01-05T17:35:20.135Z,55.20
2023-01-05T17:37:47.021Z,55.30
2023-01-05T17:40:16.882Z,55.60
2023-01-05T17:42:43.674Z,56.10
2023-01-05T17:45:20.916Z,57.00
2023-01-05T17:47:48.362Z,58.10
2023-01-05T17:50:16.076Z,59.40
2023-01-05T17:52:42.744Z,60.10
2023-01-05T17:55:09.968Z,60.10
2023-01-05T17:57:36.556Z,61.00
2023-01-05T18:00:07.279Z,61.60
2023-01-05T18:02:33.865Z,62.90
2023-01-05T18:05:00.796Z,63.30
2023-01-05T18:07:29.359Z,64.00
2023-01-05T18:09:55.941Z,64.80
2023-01-05T18:12:22.490Z,65.60
2023-01-05T18:14:49.199Z,66.70
2023-01-05T18:17:15.876Z,67.10
2023-01-05T18:22:14.566Z,68.50
2023-01-05T18:24:41.636Z,68.50
2023-01-05T18:27:09.311Z,69.20
2023-01-05T18:29:36.638Z,68.90
2023-01-05T18:32:03.995Z,69.00
2023-01-05T18:34:30.550Z,69.60
2023-01-05T18:37:02.014Z,69.50
2023-01-05T18:39:33.016Z,69.60
2023-01-05T18:41:59.553Z,69.50
2023-01-05T18:44:26.068Z,69.50
2023-01-05T18:46:52.658Z,69.50
2023-01-05T18:49:19.169Z,94.30
2023-01-05T18:51:45.778Z,89.50
2023-01-05T18:54:12.555Z,62.10
2023-01-05T18:56:39.721Z,41.90
2023-01-05T18:59:07.130Z,31.00
2023-01-05T19:01:35.651Z,25.30
2023-01-05T19:04:02.210Z,22.20
2023-01-05T19:06:28.733Z,21.30
2023-01-05T19:08:55.283Z,18.50
2023-01-05T19:11:22.912Z,17.80
2023-01-05T19:13:49.807Z,17.80
2023-01-05T19:16:17.143Z,17.80
2023-01-05T19:18:45.986Z,14.50
2023-01-05T19:21:12.563Z,13.20
2023-01-05T19:23:39.128Z,12.50
2023-01-05T19:26:06.347Z,19.10
2023-01-05T19:28:37.112Z,24.50
2023-01-05T19:31:04.871Z,30.00
2023-01-05T19:33:31.478Z,38.40
2023-01-05T19:36:01.683Z,44.40
2023-01-05T19:38:29.174Z,49.40
2023-01-05T19:40:55.665Z,53.10
2023-01-05T19:43:22.179Z,56.90
2023-01-05T19:45:48.666Z,60.20
2023-01-05T19:48:15.191Z,60.10
2023-01-05T19:50:41.711Z,62.80
2023-01-05T19:53:08.224Z,64.80
2023-01-05T19:55:38.231Z,67.20
2023-01-05T19:58:04.725Z,69.70
2023-01-05T20:00:31.240Z,69.70
2023-01-05T20:02:57.869Z,69.60
2023-01-05T20:05:24.513Z,70.70
2023-01-05T20:07:51.031Z,71.20
2023-01-05T20:10:17.706Z,71.30
2023-01-05T20:12:44.240Z,71.90
2023-01-05T20:15:13.080Z,72.90
2023-01-05T20:17:39.864Z,73.30
2023-01-05T20:20:06.794Z,73.80
2023-01-05T20:22:33.342Z,74.30
2023-01-05T20:24:59.843Z,73.80
2023-01-05T20:27:26.404Z,74.50
2023-01-05T20:29:52.924Z,76.30
2023-01-05T20:32:20.904Z,77.90
2023-01-05T20:34:52.034Z,77.90
2023-01-05T20:37:18.825Z,77.90
2023-01-05T20:39:45.376Z,77.90
2023-01-05T20:42:12.575Z,77.80
2023-01-05T20:44:40.788Z,77.90
2023-01-05T20:47:09.100Z,77.90
2023-01-05T20:49:36.513Z,77.90
2023-01-05T20:52:03.469Z,77.90
2023-01-05T20:54:30.173Z,77.90
2023-01-05T20:56:56.739Z,77.90
2023-01-05T20:59:24.575Z,77.80
2023-01-05T21:01:51.824Z,78.80
2023-01-05T21:04:18.771Z,79.40
2023-01-05T21:06:45.872Z,79.40
2023-01-05T21:09:12.440Z,78.40
2023-01-05T21:11:39.371Z,78.50
2023-01-05T21:14:06.770Z,79.20
2023-01-05T21:16:35.208Z,79.70
2023-01-05T21:19:01.767Z,79.80
2023-01-05T21:21:28.926Z,79.50
2023-01-05T21:23:55.498Z,80.80
2023-01-05T21:26:22.336Z,80.90
2023-01-05T21:28:49.921Z,81.50
2023-01-05T21:31:17.726Z,82.40
2023-01-05T21:33:44.559Z,83.20
2023-01-05T21:36:21.435Z,84.40
2023-01-05T21:39:11.117Z,86.00
2023-01-05T21:41:56.597Z,86.00
2023-01-05T21:44:23.364Z,87.20
2023-01-05T21:46:50.194Z,89.00
2023-01-05T21:49:17.581Z,90.00
2023-01-05T21:52:02.940Z,90.00
2023-01-05T21:54:48.551Z,90.00
2023-01-05T21:57:15.458Z,90.00
2023-01-05T21:59:42.420Z,90.20
2023-01-05T22:02:09.271Z,90.40
2023-01-05T22:04:36.093Z,90.50
2023-01-05T22:07:03.850Z,90.40
2023-01-05T22:09:30.420Z,90.30
2023-01-05T22:11:56.937Z,90.60
2023-01-05T22:14:23.425Z,90.50
2023-01-05T22:16:49.967Z,91.20
2023-01-05T22:19:16.511Z,91.40
2023-01-05T22:21:43.099Z,91.40
2023-01-05T22:24:11.432Z,91.20
2023-01-05T22:26:38.033Z,91.90
2023-01-05T22:29:04.835Z,91.70
2023-01-05T22:31:31.802Z,91.70
2023-01-05T22:33:59.183Z,91.70
2023-01-05T22:36:26.953Z,91.70
2023-01-05T22:38:54.279Z,91.70
2023-01-05T22:41:25.741Z,91.80
2023-01-05T22:43:52.385Z,92.10
2023-01-05T22:46:23.000Z,92.20
2023-01-05T22:48:51.029Z,92.30
2023-01-05T22:51:19.087Z,92.40
2023-01-05T22:53:45.911Z,92.50
2023-01-05T22:56:13.811Z,92.60
2023-01-05T22:58:40.671Z,92.30
2023-01-05T23:01:08.246Z,92.20
2023-01-05T23:03:35.193Z,92.50
2023-01-05T23:06:01.716Z,92.70
2023-01-05T23:08:28.283Z,93.50
2023-01-05T23:10:58.966Z,93.60
2023-01-05T23:13:25.458Z,93.80
2023-01-05T23:15:55.488Z,94.40
2023-01-05T23:18:22.575Z,94.60
2023-01-05T23:20:56.167Z,94.70
2023-01-05T23:23:22.929Z,94.70
2023-01-05T23:25:50.138Z,95.20
2023-01-05T23:28:18.090Z,95.20
2023-01-05T23:30:48.872Z,95.10
2023-01-05T23:33:15.979Z,95.20
2023-01-05T23:35:42.996Z,95.20
2023-01-05T23:38:09.685Z,95.40
2023-01-05T23:41:02.832Z,96.20
2023-01-05T23:43:29.609Z,96.70
2023-01-05T23:46:00.606Z,96.80
2023-01-05T23:48:27.604Z,97.40
2023-01-05T23:50:54.696Z,97.90
2023-01-05T23:53:21.235Z,98.40
2023-01-05T23:55:47.756Z,98.50
2023-01-05T23:58:14.337Z,98.50
